sensor_id;sensor_type;location;lat;lon;timestamp;pressure;altitude;pressure_sealevel;temperature;humidity
8160;BME280;27404;52.398;9.646;2022-11-14T00:01:31;101259.34;;;5.24;100.00
8160;BME280;27404;52.398;9.646;2022-11-14T00:03:56;101248.78;;;5.29;100.00
8160;BME280;27404;52.398;9.646;2022-11-14T00:06:22;101253.44;;;5.35;100.00
8160;BME280;27404;52.398;9.646;2022-11-14T00:08:47;101254.81;;;5.31;100.00
8160;BME280;27404;52.398;9.646;2022-11-14T00:11:13;101253.25;;;5.37;100.00
8160;BME280;27404;52.398;9.646;2022-11-14T00:13:38;101253.25;;;5.37;100.00
8160;BME280;27404;52.398;9.646;2022-11-14T00:16:04;101250.91;;;5.33;100.00
8160;BME280;27404;52.398;9.646;2022-11-14T00:18:29;101251.09;;;5.32;100.00
8160;BME280;27404;52.398;9.646;2022-11-14T00:20:55;101238.19;;;5.34;100.00
8160;BME280;27404;52.398;9.646;2022-11-14T00:23:20;101244.47;;;5.34;100.00
8160;BME280;27404;52.398;9.646;2022-11-14T00:25:46;101241.47;;;5.29;100.00
8160;BME280;27404;52.398;9.646;2022-11-14T00:28:12;101234.75;;;5.25;100.00
8160;BME280;27404;52.398;9.646;2022-11-14T00:30:38;101237.72;;;5.30;100.00
8160;BME280;27404;52.398;9.646;2022-11-14T00:33:04;101235.84;;;5.31;100.00
8160;BME280;27404;52.398;9.646;2022-11-14T00:35:29;101233.63;;;5.34;100.00
8160;BME280;27404;52.398;9.646;2022-11-14T00:37:55;101228.56;;;5.31;100.00
8160;BME280;27404;52.398;9.646;2022-11-14T00:40:20;101234.28;;;5.37;100.00
8160;BME280;27404;52.398;9.646;2022-11-14T00:42:46;101228.00;;;5.36;100.00
8160;BME280;27404;52.398;9.646;2022-11-14T00:45:11;101227.72;;;5.31;100.00
8160;BME280;27404;52.398;9.646;2022-11-14T00:47:37;101225.22;;;5.29;100.00
8160;BME280;27404;52.398;9.646;2022-11-14T00:50:03;101217.72;;;5.31;100.00
8160;BME280;27404;52.398;9.646;2022-11-14T00:52:28;101218.66;;;5.24;100.00
8160;BME280;27404;52.398;9.646;2022-11-14T00:54:54;101218.56;;;5.17;100.00
8160;BME280;27404;52.398;9.646;2022-11-14T00:57:19;101220.31;;;5.10;100.00
8160;BME280;27404;52.398;9.646;2022-11-14T00:59:44;101215.38;;;5.13;100.00
8160;BME280;27404;52.398;9.646;2022-11-14T01:02:10;101220.44;;;5.16;100.00
8160;BME280;27404;52.398;9.646;2022-11-14T01:04:35;101207.91;;;5.15;100.00
8160;BME280;27404;52.398;9.646;2022-11-14T01:07:01;101200.59;;;5.16;100.00
8160;BME280;27404;52.398;9.646;2022-11-14T01:09:26;101198.94;;;5.15;100.00
8160;BME280;27404;52.398;9.646;2022-11-14T01:11:52;101192.09;;;5.19;100.00
8160;BME280;27404;52.398;9.646;2022-11-14T01:14:17;101192.22;;;5.26;100.00
8160;BME280;27404;52.398;9.646;2022-11-14T01:16:42;101198.00;;;5.23;100.00
8160;BME280;27404;52.398;9.646;2022-11-14T01:19:08;101194.94;;;5.26;100.00
8160;BME280;27404;52.398;9.646;2022-11-14T01:21:33;101190.16;;;5.28;100.00
8160;BME280;27404;52.398;9.646;2022-11-14T01:23:59;101192.41;;;5.24;100.00
8160;BME280;27404;52.398;9.646;2022-11-14T01:26:24;101192.47;;;5.31;100.00
8160;BME280;27404;52.398;9.646;2022-11-14T01:28:50;101179.31;;;5.13;100.00
8160;BME280;27404;52.398;9.646;2022-11-14T01:31:18;101186.22;;;5.15;100.00
8160;BME280;27404;52.398;9.646;2022-11-14T01:33:48;101191.44;;;5.17;100.00
8160;BME280;27404;52.398;9.646;2022-11-14T01:36:13;101187.91;;;5.16;100.00
8160;BME280;27404;52.398;9.646;2022-11-14T01:38:39;101173.78;;;5.21;100.00
8160;BME280;27404;52.398;9.646;2022-11-14T01:41:05;101169.78;;;5.17;100.00
8160;BME280;27404;52.398;9.646;2022-11-14T01:43:35;101171.44;;;5.18;100.00
8160;BME280;27404;52.398;9.646;2022-11-14T01:46:21;101172.75;;;5.22;100.00
8160;BME280;27404;52.398;9.646;2022-11-14T01:51:32;101164.91;;;5.12;100.00
8160;BME280;27404;52.398;9.646;2022-11-14T01:54:01;101165.56;;;5.14;100.00
8160;BME280;27404;52.398;9.646;2022-11-14T01:56:34;101162.38;;;5.11;100.00
8160;BME280;27404;52.398;9.646;2022-11-14T01:59:07;101156.59;;;4.99;100.00
8160;BME280;27404;52.398;9.646;2022-11-14T02:01:35;101155.19;;;5.03;100.00
8160;BME280;27404;52.398;9.646;2022-11-14T02:04:03;101146.97;;;4.96;100.00
8160;BME280;27404;52.398;9.646;2022-11-14T02:06:30;101142.59;;;4.95;100.00
8160;BME280;27404;52.398;9.646;2022-11-14T02:08:57;101149.19;;;4.93;100.00
8160;BME280;27404;52.398;9.646;2022-11-14T02:11:24;101147.06;;;4.88;100.00
8160;BME280;27404;52.398;9.646;2022-11-14T02:13:53;101146.13;;;4.81;100.00
8160;BME280;27404;52.398;9.646;2022-11-14T02:16:18;101143.56;;;4.79;100.00
8160;BME280;27404;52.398;9.646;2022-11-14T02:18:44;101138.72;;;4.74;100.00
8160;BME280;27404;52.398;9.646;2022-11-14T02:21:16;101144.91;;;4.83;100.00
8160;BME280;27404;52.398;9.646;2022-11-14T02:23:42;101144.16;;;4.74;100.00
8160;BME280;27404;52.398;9.646;2022-11-14T02:26:07;101135.09;;;4.82;100.00
8160;BME280;27404;52.398;9.646;2022-11-14T02:28:33;101135.28;;;4.81;100.00
8160;BME280;27404;52.398;9.646;2022-11-14T02:30:58;101142.34;;;4.67;100.00
8160;BME280;27404;52.398;9.646;2022-11-14T02:33:24;101132.53;;;4.66;100.00
8160;BME280;27404;52.398;9.646;2022-11-14T02:35:49;101124.31;;;4.59;100.00
8160;BME280;27404;52.398;9.646;2022-11-14T02:38:14;101122.84;;;4.56;100.00
8160;BME280;27404;52.398;9.646;2022-11-14T02:40:40;101123.50;;;4.58;100.00
8160;BME280;27404;52.398;9.646;2022-11-14T02:43:06;101123.50;;;4.58;100.00
8160;BME280;27404;52.398;9.646;2022-11-14T02:45:31;101112.09;;;4.63;100.00
8160;BME280;27404;52.398;9.646;2022-11-14T02:47:57;101117.41;;;4.56;100.00
8160;BME280;27404;52.398;9.646;2022-11-14T02:50:22;101117.41;;;4.56;100.00
8160;BME280;27404;52.398;9.646;2022-11-14T02:52:47;101108.72;;;4.61;100.00
8160;BME280;27404;52.398;9.646;2022-11-14T02:55:13;101110.78;;;4.59;100.00
8160;BME280;27404;52.398;9.646;2022-11-14T02:57:39;101106.03;;;4.61;100.00
8160;BME280;27404;52.398;9.646;2022-11-14T03:00:05;101112.94;;;4.64;100.00
8160;BME280;27404;52.398;9.646;2022-11-14T03:02:30;101102.00;;;4.72;100.00
8160;BME280;27404;52.398;9.646;2022-11-14T03:04:56;101105.66;;;4.64;100.00
8160;BME280;27404;52.398;9.646;2022-11-14T03:07:21;101104.16;;;4.62;100.00
8160;BME280;27404;52.398;9.646;2022-11-14T03:09:47;101100.81;;;4.59;100.00
8160;BME280;27404;52.398;9.646;2022-11-14T03:12:17;101101.25;;;4.63;100.00
8160;BME280;27404;52.398;9.646;2022-11-14T03:14:42;101098.84;;;4.68;100.00
8160;BME280;27404;52.398;9.646;2022-11-14T03:17:08;101098.34;;;4.65;100.00
8160;BME280;27404;52.398;9.646;2022-11-14T03:19:33;101090.72;;;4.68;100.00
8160;BME280;27404;52.398;9.646;2022-11-14T03:21:59;101094.09;;;4.70;100.00
8160;BME280;27404;52.398;9.646;2022-11-14T03:24:24;101086.69;;;4.64;100.00
8160;BME280;27404;52.398;9.646;2022-11-14T03:26:49;101081.19;;;4.72;100.00
8160;BME280;27404;52.398;9.646;2022-11-14T03:29:15;101081.56;;;4.69;100.00
8160;BME280;27404;52.398;9.646;2022-11-14T03:31:40;101074.19;;;4.63;100.00
8160;BME280;27404;52.398;9.646;2022-11-14T03:34:06;101076.22;;;4.61;100.00
8160;BME280;27404;52.398;9.646;2022-11-14T03:36:33;101075.66;;;4.66;100.00
8160;BME280;27404;52.398;9.646;2022-11-14T03:38:58;101085.38;;;4.60;100.00
8160;BME280;27404;52.398;9.646;2022-11-14T03:41:23;101067.28;;;4.61;100.00
8160;BME280;27404;52.398;9.646;2022-11-14T03:43:49;101070.38;;;4.57;100.00
8160;BME280;27404;52.398;9.646;2022-11-14T03:46:14;101063.56;;;4.62;100.00
8160;BME280;27404;52.398;9.646;2022-11-14T03:48:40;101069.78;;;4.62;100.00
8160;BME280;27404;52.398;9.646;2022-11-14T03:51:05;101065.78;;;4.58;100.00
8160;BME280;27404;52.398;9.646;2022-11-14T03:53:31;101068.78;;;4.63;100.00
8160;BME280;27404;52.398;9.646;2022-11-14T03:55:56;101056.81;;;4.57;100.00
8160;BME280;27404;52.398;9.646;2022-11-14T03:58:21;101056.63;;;4.59;100.00
8160;BME280;27404;52.398;9.646;2022-11-14T04:00:47;101048.22;;;4.54;100.00
8160;BME280;27404;52.398;9.646;2022-11-14T04:03:12;101040.56;;;4.57;100.00
8160;BME280;27404;52.398;9.646;2022-11-14T04:05:38;101030.13;;;4.54;100.00
8160;BME280;27404;52.398;9.646;2022-11-14T04:08:04;101033.09;;;4.59;100.00
8160;BME280;27404;52.398;9.646;2022-11-14T04:10:30;101029.09;;;4.55;100.00
8160;BME280;27404;52.398;9.646;2022-11-14T04:12:55;101019.94;;;4.56;100.00
8160;BME280;27404;52.398;9.646;2022-11-14T04:15:21;101016.75;;;4.53;100.00
8160;BME280;27404;52.398;9.646;2022-11-14T04:17:46;101016.38;;;4.56;100.00
8160;BME280;27404;52.398;9.646;2022-11-14T04:20:13;101017.41;;;4.55;100.00
8160;BME280;27404;52.398;9.646;2022-11-14T04:22:38;101016.56;;;4.54;100.00
8160;BME280;27404;52.398;9.646;2022-11-14T04:25:05;101017.59;;;4.53;100.00
8160;BME280;27404;52.398;9.646;2022-11-14T04:27:31;101026.66;;;4.61;100.00
8160;BME280;27404;52.398;9.646;2022-11-14T04:29:56;101022.94;;;4.62;100.00
8160;BME280;27404;52.398;9.646;2022-11-14T04:32:21;101019.38;;;4.61;100.00
8160;BME280;27404;52.398;9.646;2022-11-14T04:34:48;101029.25;;;4.54;100.00
8160;BME280;27404;52.398;9.646;2022-11-14T04:37:13;101019.19;;;4.63;100.00
8160;BME280;27404;52.398;9.646;2022-11-14T04:39:38;101024.03;;;4.52;100.00
8160;BME280;27404;52.398;9.646;2022-11-14T04:42:04;101012.00;;;4.55;100.00
8160;BME280;27404;52.398;9.646;2022-11-14T04:44:29;101018.91;;;4.57;100.00
8160;BME280;27404;52.398;9.646;2022-11-14T04:46:55;101022.53;;;4.50;100.00
8160;BME280;27404;52.398;9.646;2022-11-14T04:49:21;101033.47;;;4.56;100.00
8160;BME280;27404;52.398;9.646;2022-11-14T04:51:47;101022.38;;;4.51;100.00
8160;BME280;27404;52.398;9.646;2022-11-14T04:54:12;101018.16;;;4.49;100.00
8160;BME280;27404;52.398;9.646;2022-11-14T04:56:38;101020.97;;;4.55;100.00
8160;BME280;27404;52.398;9.646;2022-11-14T04:59:03;101017.53;;;4.62;100.00
8160;BME280;27404;52.398;9.646;2022-11-14T05:01:29;101004.34;;;4.58;100.00
8160;BME280;27404;52.398;9.646;2022-11-14T05:03:54;101007.81;;;4.52;100.00
8160;BME280;27404;52.398;9.646;2022-11-14T05:06:20;100996.97;;;4.52;100.00
8160;BME280;27404;52.398;9.646;2022-11-14T05:08:45;100988.28;;;4.57;100.00
8160;BME280;27404;52.398;9.646;2022-11-14T05:11:17;100990.34;;;4.55;100.00
8160;BME280;27404;52.398;9.646;2022-11-14T05:13:43;100986.16;;;4.52;100.00
8160;BME280;27404;52.398;9.646;2022-11-14T05:16:09;100983.81;;;4.49;100.00
8160;BME280;27404;52.398;9.646;2022-11-14T05:18:35;100986.31;;;4.51;100.00
8160;BME280;27404;52.398;9.646;2022-11-14T05:21:01;100986.31;;;4.66;100.00
8160;BME280;27404;52.398;9.646;2022-11-14T05:23:27;100985.19;;;4.60;100.00
8160;BME280;27404;52.398;9.646;2022-11-14T05:26:07;100977.06;;;4.60;100.00
8160;BME280;27404;52.398;9.646;2022-11-14T05:28:33;100993.03;;;4.70;100.00
8160;BME280;27404;52.398;9.646;2022-11-14T05:31:07;100978.44;;;4.71;100.00
8160;BME280;27404;52.398;9.646;2022-11-14T05:33:33;100981.81;;;4.73;100.00
8160;BME280;27404;52.398;9.646;2022-11-14T05:36:26;100978.44;;;4.71;100.00
8160;BME280;27404;52.398;9.646;2022-11-14T05:38:51;100976.31;;;4.66;100.00
8160;BME280;27404;52.398;9.646;2022-11-14T05:41:17;100982.47;;;4.75;100.00
8160;BME280;27404;52.398;9.646;2022-11-14T05:43:46;100975.66;;;4.64;100.00
8160;BME280;27404;52.398;9.646;2022-11-14T05:46:13;100981.09;;;4.64;100.00
8160;BME280;27404;52.398;9.646;2022-11-14T05:48:40;100982.50;;;4.60;100.00
8160;BME280;27404;52.398;9.646;2022-11-14T05:51:09;100973.25;;;4.69;100.00
8160;BME280;27404;52.398;9.646;2022-11-14T05:53:35;100980.13;;;4.72;100.00
8160;BME280;27404;52.398;9.646;2022-11-14T05:56:03;100978.66;;;4.69;100.00
8160;BME280;27404;52.398;9.646;2022-11-14T05:58:30;100972.22;;;4.70;100.00
8160;BME280;27404;52.398;9.646;2022-11-14T06:01:10;100981.38;;;4.69;100.00
8160;BME280;27404;52.398;9.646;2022-11-14T06:03:39;100975.28;;;4.67;100.00
8160;BME280;27404;52.398;9.646;2022-11-14T06:06:07;100974.00;;;4.63;100.00
8160;BME280;27404;52.398;9.646;2022-11-14T06:08:33;100975.03;;;4.62;100.00
8160;BME280;27404;52.398;9.646;2022-11-14T06:11:04;100982.50;;;4.60;100.00
8160;BME280;27404;52.398;9.646;2022-11-14T06:13:31;100976.91;;;4.62;100.00
8160;BME280;27404;52.398;9.646;2022-11-14T06:15:58;100977.16;;;4.67;100.00
8160;BME280;27404;52.398;9.646;2022-11-14T06:18:25;100976.25;;;4.59;100.00
8160;BME280;27404;52.398;9.646;2022-11-14T06:20:50;100976.31;;;4.66;100.00
8160;BME280;27404;52.398;9.646;2022-11-14T06:23:16;100974.75;;;4.57;100.00
8160;BME280;27404;52.398;9.646;2022-11-14T06:25:41;100971.56;;;4.53;100.00
8160;BME280;27404;52.398;9.646;2022-11-14T06:28:07;100960.00;;;4.59;100.00
8160;BME280;27404;52.398;9.646;2022-11-14T06:30:32;100965.22;;;4.61;100.00
8160;BME280;27404;52.398;9.646;2022-11-14T06:32:58;100967.91;;;4.61;100.00
8160;BME280;27404;52.398;9.646;2022-11-14T06:35:24;100974.19;;;4.62;100.00
8160;BME280;27404;52.398;9.646;2022-11-14T06:37:50;100972.88;;;4.57;100.00
8160;BME280;27404;52.398;9.646;2022-11-14T06:40:15;100978.00;;;4.67;100.00
8160;BME280;27404;52.398;9.646;2022-11-14T06:42:41;100957.16;;;4.68;100.00
8160;BME280;27404;52.398;9.646;2022-11-14T06:45:06;100965.50;;;4.66;100.00
8160;BME280;27404;52.398;9.646;2022-11-14T06:47:32;100950.34;;;4.72;100.00
8160;BME280;27404;52.398;9.646;2022-11-14T06:49:57;100959.50;;;4.71;100.00
8160;BME280;27404;52.398;9.646;2022-11-14T06:52:23;100958.41;;;4.65;100.00
8160;BME280;27404;52.398;9.646;2022-11-14T06:54:50;100951.00;;;4.74;100.00
8160;BME280;27404;52.398;9.646;2022-11-14T06:57:16;100964.09;;;4.70;100.00
8160;BME280;27404;52.398;9.646;2022-11-14T06:59:41;100961.81;;;4.74;100.00
8160;BME280;27404;52.398;9.646;2022-11-14T07:02:13;100965.09;;;4.84;100.00
8160;BME280;27404;52.398;9.646;2022-11-14T07:04:38;100961.19;;;4.87;100.00
8160;BME280;27404;52.398;9.646;2022-11-14T07:07:04;100957.06;;;4.76;100.00
8160;BME280;27404;52.398;9.646;2022-11-14T07:09:29;100973.91;;;4.71;100.00
8160;BME280;27404;52.398;9.646;2022-11-14T07:11:55;100969.69;;;4.69;100.00
8160;BME280;27404;52.398;9.646;2022-11-14T07:14:20;100960.66;;;4.62;100.00
8160;BME280;27404;52.398;9.646;2022-11-14T07:16:46;100960.53;;;4.70;100.00
8160;BME280;27404;52.398;9.646;2022-11-14T07:19:12;100954.34;;;4.76;100.00
8160;BME280;27404;52.398;9.646;2022-11-14T07:21:37;100966.78;;;4.70;100.00
8160;BME280;27404;52.398;9.646;2022-11-14T07:24:03;100962.22;;;4.71;100.00
8160;BME280;27404;52.398;9.646;2022-11-14T07:26:29;100954.66;;;4.66;100.00
8160;BME280;27404;52.398;9.646;2022-11-14T07:28:54;100964.56;;;4.59;100.00
8160;BME280;27404;52.398;9.646;2022-11-14T07:31:20;100954.69;;;4.51;100.00
8160;BME280;27404;52.398;9.646;2022-11-14T07:33:46;100953.44;;;4.54;100.00
8160;BME280;27404;52.398;9.646;2022-11-14T07:36:12;100955.22;;;4.47;100.00
8160;BME280;27404;52.398;9.646;2022-11-14T07:38:39;100951.22;;;4.57;100.00
8160;BME280;27404;52.398;9.646;2022-11-14T07:41:13;100950.38;;;4.57;100.00
8160;BME280;27404;52.398;9.646;2022-11-14T07:43:39;100952.53;;;4.62;100.00
8160;BME280;27404;52.398;9.646;2022-11-14T07:46:07;100956.44;;;4.59;100.00
8160;BME280;27404;52.398;9.646;2022-11-14T07:48:34;100969.22;;;4.65;100.00
8160;BME280;27404;52.398;9.646;2022-11-14T07:51:05;100965.50;;;4.66;100.00
8160;BME280;27404;52.398;9.646;2022-11-14T07:53:31;100957.75;;;4.63;100.00
8160;BME280;27404;52.398;9.646;2022-11-14T07:56:02;100954.28;;;4.69;100.00
8160;BME280;27404;52.398;9.646;2022-11-14T07:58:27;100970.72;;;4.83;100.00
8160;BME280;27404;52.398;9.646;2022-11-14T08:00:53;100968.00;;;4.83;100.00
8160;BME280;27404;52.398;9.646;2022-11-14T08:03:18;100960.69;;;4.83;100.00
8160;BME280;27404;52.398;9.646;2022-11-14T08:05:44;100970.22;;;4.94;100.00
8160;BME280;27404;52.398;9.646;2022-11-14T08:08:09;100964.38;;;4.76;100.00
8160;BME280;27404;52.398;9.646;2022-11-14T08:10:34;100961.19;;;4.72;100.00
8160;BME280;27404;52.398;9.646;2022-11-14T08:13:02;100959.16;;;4.59;100.00
8160;BME280;27404;52.398;9.646;2022-11-14T08:15:28;100962.78;;;4.66;100.00
8160;BME280;27404;52.398;9.646;2022-11-14T08:17:58;100937.38;;;4.67;100.00
8160;BME280;27404;52.398;9.646;2022-11-14T08:20:24;100944.75;;;4.73;100.00
8160;BME280;27404;52.398;9.646;2022-11-14T08:22:51;100947.81;;;4.85;100.00
8160;BME280;27404;52.398;9.646;2022-11-14T08:25:17;100960.91;;;4.82;100.00
8160;BME280;27404;52.398;9.646;2022-11-14T08:27:43;100960.41;;;4.93;100.00
8160;BME280;27404;52.398;9.646;2022-11-14T08:30:09;100956.69;;;4.94;100.00
8160;BME280;27404;52.398;9.646;2022-11-14T08:32:34;100953.75;;;4.96;100.00
8160;BME280;27404;52.398;9.646;2022-11-14T08:35:00;100965.69;;;5.01;100.00
8160;BME280;27404;52.398;9.646;2022-11-14T08:37:25;100952.03;;;4.88;100.00
8160;BME280;27404;52.398;9.646;2022-11-14T08:39:50;100950.63;;;4.92;100.00
8160;BME280;27404;52.398;9.646;2022-11-14T08:42:16;100970.66;;;4.98;100.00
8160;BME280;27404;52.398;9.646;2022-11-14T08:44:41;100961.25;;;4.94;100.00
8160;BME280;27404;52.398;9.646;2022-11-14T08:47:07;100957.78;;;5.00;100.00
8160;BME280;27404;52.398;9.646;2022-11-14T08:49:32;100964.66;;;5.02;100.00
8160;BME280;27404;52.398;9.646;2022-11-14T08:51:58;100967.38;;;5.02;100.00
8160;BME280;27404;52.398;9.646;2022-11-14T08:54:23;100972.78;;;5.02;100.00
8160;BME280;27404;52.398;9.646;2022-11-14T08:56:49;100968.78;;;4.98;100.00
8160;BME280;27404;52.398;9.646;2022-11-14T08:59:14;100968.03;;;5.04;100.00
8160;BME280;27404;52.398;9.646;2022-11-14T09:01:40;100960.16;;;5.10;100.00
8160;BME280;27404;52.398;9.646;2022-11-14T09:04:05;100951.28;;;5.16;100.00
8160;BME280;27404;52.398;9.646;2022-11-14T09:06:31;100955.13;;;5.07;100.00
8160;BME280;27404;52.398;9.646;2022-11-14T09:08:56;100955.41;;;5.12;100.00
8160;BME280;27404;52.398;9.646;2022-11-14T09:11:22;100956.91;;;5.14;100.00
8160;BME280;27404;52.398;9.646;2022-11-14T09:13:47;100964.56;;;5.11;100.00
8160;BME280;27404;52.398;9.646;2022-11-14T09:16:13;100946.50;;;5.18;100.00
8160;BME280;27404;52.398;9.646;2022-11-14T09:18:38;100953.59;;;5.19;100.00
8160;BME280;27404;52.398;9.646;2022-11-14T09:21:07;100950.78;;;5.27;100.00
8160;BME280;27404;52.398;9.646;2022-11-14T09:23:33;100948.69;;;5.29;100.00
8160;BME280;27404;52.398;9.646;2022-11-14T09:26:06;100944.00;;;5.16;100.00
8160;BME280;27404;52.398;9.646;2022-11-14T09:28:32;100955.28;;;5.20;100.00
8160;BME280;27404;52.398;9.646;2022-11-14T09:31:02;100950.50;;;5.22;100.00
8160;BME280;27404;52.398;9.646;2022-11-14T09:33:28;100949.56;;;5.30;100.00
8160;BME280;27404;52.398;9.646;2022-11-14T09:36:02;100937.16;;;5.42;100.00
8160;BME280;27404;52.398;9.646;2022-11-14T09:38:28;100936.38;;;5.48;100.00
8160;BME280;27404;52.398;9.646;2022-11-14T09:41:14;100928.75;;;5.59;100.00
8160;BME280;27404;52.398;9.646;2022-11-14T09:44:12;100940.28;;;5.68;100.00
8160;BME280;27404;52.398;9.646;2022-11-14T09:46:43;100931.06;;;5.62;100.00
8160;BME280;27404;52.398;9.646;2022-11-14T09:51:53;100909.31;;;5.55;100.00
8160;BME280;27404;52.398;9.646;2022-11-14T09:54:27;100904.56;;;5.57;100.00
8160;BME280;27404;52.398;9.646;2022-11-14T09:56:57;100912.03;;;5.55;100.00
8160;BME280;27404;52.398;9.646;2022-11-14T09:59:24;100913.81;;;5.70;100.00
8160;BME280;27404;52.398;9.646;2022-11-14T10:02:00;100888.66;;;5.83;100.00
8160;BME280;27404;52.398;9.646;2022-11-14T10:04:48;100885.22;;;5.67;100.00
8160;BME280;27404;52.398;9.646;2022-11-14T10:07:43;100876.72;;;5.77;100.00
8160;BME280;27404;52.398;9.646;2022-11-14T10:16:16;100886.84;;;6.18;100.00
8160;BME280;27404;52.398;9.646;2022-11-14T10:26:45;100864.59;;;6.43;100.00
8160;BME280;27404;52.398;9.646;2022-11-14T10:29:28;100870.88;;;6.44;100.00
8160;BME280;27404;52.398;9.646;2022-11-14T10:34:40;100861.63;;;6.31;100.00
8160;BME280;27404;52.398;9.646;2022-11-14T10:37:18;100859.16;;;6.43;100.00
8160;BME280;27404;52.398;9.646;2022-11-14T10:39:52;100863.19;;;6.61;100.00
8160;BME280;27404;52.398;9.646;2022-11-14T10:42:34;100863.09;;;6.34;100.00
8160;BME280;27404;52.398;9.646;2022-11-14T10:46:20;100863.09;;;6.34;100.00
8160;BME280;27404;52.398;9.646;2022-11-14T10:50:55;100834.13;;;6.55;100.00
8160;BME280;27404;52.398;9.646;2022-11-14T10:53:40;100838.38;;;6.84;100.00
8160;BME280;27404;52.398;9.646;2022-11-14T10:56:10;100838.81;;;6.81;100.00
8160;BME280;27404;52.398;9.646;2022-11-14T10:58:40;100846.97;;;6.88;100.00
8160;BME280;27404;52.398;9.646;2022-11-14T11:01:31;100860.56;;;6.94;100.00
8160;BME280;27404;52.398;9.646;2022-11-14T11:04:33;100856.81;;;7.02;100.00
8160;BME280;27404;52.398;9.646;2022-11-14T11:09:38;100856.78;;;6.75;100.00
8160;BME280;27404;52.398;9.646;2022-11-14T11:15:23;100856.38;;;6.78;100.00
8160;BME280;27404;52.398;9.646;2022-11-14T11:20:29;100839.16;;;6.51;100.00
8160;BME280;27404;52.398;9.646;2022-11-14T11:23:04;100856.72;;;6.55;100.00
8160;BME280;27404;52.398;9.646;2022-11-14T11:25:32;100852.78;;;6.71;100.00
8160;BME280;27404;52.398;9.646;2022-11-14T11:28:17;100851.97;;;6.77;100.00
8160;BME280;27404;52.398;9.646;2022-11-14T11:30:55;100846.28;;;6.65;100.00
8160;BME280;27404;52.398;9.646;2022-11-14T11:33:32;100841.50;;;6.19;100.00
8160;BME280;27404;52.398;9.646;2022-11-14T11:36:10;100842.94;;;6.08;100.00
8160;BME280;27404;52.398;9.646;2022-11-14T11:38:36;100852.69;;;6.02;100.00
8160;BME280;27404;52.398;9.646;2022-11-14T11:43:57;100839.50;;;5.99;100.00
8160;BME280;27404;52.398;9.646;2022-11-14T11:46:34;100824.25;;;5.98;100.00
8160;BME280;27404;52.398;9.646;2022-11-14T11:49:14;100823.38;;;6.19;100.00
8160;BME280;27404;52.398;9.646;2022-11-14T11:51:42;100813.81;;;6.37;100.00
8160;BME280;27404;52.398;9.646;2022-11-14T11:54:18;100802.72;;;6.32;100.00
8160;BME280;27404;52.398;9.646;2022-11-14T11:56:47;100806.91;;;6.28;100.00
8160;BME280;27404;52.398;9.646;2022-11-14T11:59:41;100801.09;;;6.37;100.00
8160;BME280;27404;52.398;9.646;2022-11-14T12:02:26;100804.91;;;6.63;100.00
8160;BME280;27404;52.398;9.646;2022-11-14T12:04:54;100796.75;;;6.63;100.00
8160;BME280;27404;52.398;9.646;2022-11-14T12:07:42;100798.66;;;6.70;100.00
8160;BME280;27404;52.398;9.646;2022-11-14T12:10:21;100794.44;;;6.54;100.00
8160;BME280;27404;52.398;9.646;2022-11-14T12:13:08;100803.41;;;6.47;100.00
8160;BME280;27404;52.398;9.646;2022-11-14T12:15:45;100785.00;;;6.43;100.00
8160;BME280;27404;52.398;9.646;2022-11-14T12:18:30;100790.41;;;6.29;100.00
8160;BME280;27404;52.398;9.646;2022-11-14T12:21:15;100790.81;;;6.26;100.00
8160;BME280;27404;52.398;9.646;2022-11-14T12:26:43;100792.53;;;6.41;100.00
8160;BME280;27404;52.398;9.646;2022-11-14T12:32:05;100787.28;;;6.32;100.00
8160;BME280;27404;52.398;9.646;2022-11-14T12:34:39;100790.81;;;6.33;100.00
8160;BME280;27404;52.398;9.646;2022-11-14T12:37:15;100784.97;;;6.36;100.00
8160;BME280;27404;52.398;9.646;2022-11-14T12:39:54;100791.03;;;6.38;100.00
8160;BME280;27404;52.398;9.646;2022-11-14T12:42:21;100786.28;;;6.47;100.00
8160;BME280;27404;52.398;9.646;2022-11-14T12:44:46;100792.94;;;6.44;100.00
8160;BME280;27404;52.398;9.646;2022-11-14T12:47:17;100794.19;;;6.42;100.00
8160;BME280;27404;52.398;9.646;2022-11-14T12:53:07;100781.22;;;6.37;100.00
8160;BME280;27404;52.398;9.646;2022-11-14T12:58:06;100769.97;;;6.40;100.00
8160;BME280;27404;52.398;9.646;2022-11-14T13:00:57;100761.81;;;6.40;100.00
8160;BME280;27404;52.398;9.646;2022-11-14T13:11:43;100739.94;;;6.55;100.00
8160;BME280;27404;52.398;9.646;2022-11-14T13:14:29;100730.28;;;6.52;100.00
8160;BME280;27404;52.398;9.646;2022-11-14T13:20:02;100739.28;;;6.53;100.00
8160;BME280;27404;52.398;9.646;2022-11-14T13:33:43;100734.50;;;6.55;100.00
8160;BME280;27404;52.398;9.646;2022-11-14T13:36:46;100731.38;;;6.58;100.00
8160;BME280;27404;52.398;9.646;2022-11-14T13:39:28;100728.00;;;6.63;100.00
8160;BME280;27404;52.398;9.646;2022-11-14T13:44:46;100727.19;;;6.62;100.00
8160;BME280;27404;52.398;9.646;2022-11-14T13:50:29;100729.06;;;6.69;100.00
8160;BME280;27404;52.398;9.646;2022-11-14T13:52:56;100728.84;;;6.63;100.00
8160;BME280;27404;52.398;9.646;2022-11-14T13:58:28;100727.59;;;6.59;100.00
8160;BME280;27404;52.398;9.646;2022-11-14T14:06:49;100722.16;;;6.66;100.00
8160;BME280;27404;52.398;9.646;2022-11-14T14:09:21;100711.50;;;6.64;100.00
8160;BME280;27404;52.398;9.646;2022-11-14T14:12:06;100713.16;;;6.65;100.00
8160;BME280;27404;52.398;9.646;2022-11-14T14:22:54;100699.81;;;6.57;100.00
8160;BME280;27404;52.398;9.646;2022-11-14T14:25:30;100697.72;;;6.59;100.00
8160;BME280;27404;52.398;9.646;2022-11-14T14:29:05;100699.59;;;6.59;100.00
8160;BME280;27404;52.398;9.646;2022-11-14T14:33:42;100697.06;;;6.50;100.00
8160;BME280;27404;52.398;9.646;2022-11-14T14:36:23;100698.16;;;6.56;100.00
8160;BME280;27404;52.398;9.646;2022-11-14T14:39:10;100689.78;;;6.51;100.00
8160;BME280;27404;52.398;9.646;2022-11-14T14:41:36;100687.88;;;6.51;100.00
8160;BME280;27404;52.398;9.646;2022-11-14T14:44:02;100675.56;;;6.49;100.00
8160;BME280;27404;52.398;9.646;2022-11-14T14:46:32;100686.22;;;6.44;100.00